NORTHEAST SUFFOLK  -  Winter Weather Advisory Winter Weather Advisory     Winter Weather Advisory Winter Weather Advisory        NORTHERN NASSAU  -  Winter Weather Advisory Winter Weather Advisory        NORTHWEST SUFFOLK  -  Winter Weather Advisory Winter Weather Advisory     Winter Weather Advisory Winter Weather Advisory        SOUTHEAST SUFFOLK  -  Winter Weather Advisory Winter Weather Advisory     Winter Weather Advisory Winter Weather Advisory        SOUTHERN NASSAU  -  Winter Weather Advisory Winter Weather Advisory        SOUTHWEST SUFFOLK  -  Winter Weather Advisory Winter Weather Advisory     Winter Weather Advisory Winter Weather Advisory      

Active alerts

Northern Nassau
  Details for Northern Nassau Winter Weather Advisory
Southern Nassau
  Details for Southern Nassau Winter Weather Advisory
Northwest Suffolk
  Details for Northwest Suffolk Winter Weather Advisory  +1 additional alert
Southwest Suffolk
  Details for Southwest Suffolk Winter Weather Advisory  +1 additional alert
Northeast Suffolk
  Details for Northeast Suffolk Winter Weather Advisory  +1 additional alert
Southeast Suffolk
  Details for Southeast Suffolk Winter Weather Advisory  +1 additional alert


WXM80 ListenWXM80 Stop

You find our weather info also at:

UK Metoffice

WeatherCloud

Weather Underground

Northeastern Weather Network

AWEKAS

Citizen Weather Observer Program (CWOP)

HAMweather, WeatherForYou, PWS Weather


Weather Underground History page Text

Daily Summary for March 10, 2017 Units:  Both    English   Metric
« Previous Day
Next Day »
Daily Weekly Monthly Yearly Custom
  High: Low: Average:
Temperature: 46.5 °F /  8.1 °C 23.6 °F /  -4.7 °C 34.2 °F /  1.2 °C
Dew Point: 32.3 °F /  0.2 °C 10.9 °F /  -11.7 °C 27.1 °F /  -2.7 °C
Humidity: 95 % 44 % 77 %
Wind Speed: 13.8 mph /  22.2 km/h - 5.7 mph /  9.2 km/h
Wind Gust: 26.5 mph /  42.6 km/h - -
Wind:- - South
Pressure: 29.97 in /  1014.8 hPa 29.74 in /  1007 hPa -
Precipitation: 0.27 in /  6.86 mm    
Historical Graphs
 
 
Tabular Data for March 10, 2017
Time Temperature Dew Point Pressure Wind Wind Speed Wind Gust Humidity Rainfall Rate (Hourly)
00:03 46.5 °F /  8.1 °C 26.3 °F /  -3.2 °C 29.95 in /  1014.1 hPa NW 1.2 mph /  1.9 km/h 6.9 mph /  11.1 km/h 45 % 0.00 in /  0 mm
00:08 46.5 °F /  8.1 °C 25.7 °F /  -3.5 °C 29.94 in /  1013.8 hPa NW 3.6 mph /  5.8 km/h 8.1 mph /  13 km/h 44 % 0.00 in /  0 mm
00:13 46.4 °F /  8 °C 26.2 °F /  -3.2 °C 29.94 in /  1013.8 hPa West 2.8 mph /  4.5 km/h 3.5 mph /  5.6 km/h 45 % 0.00 in /  0 mm
00:18 46.3 °F /  7.9 °C 27.7 °F /  -2.4 °C 29.94 in /  1013.8 hPa WNW 0.1 mph /  0.2 km/h 1.2 mph /  1.9 km/h 48 % 0.00 in /  0 mm
00:23 46.3 °F /  7.9 °C 28.7 °F /  -1.8 °C 29.94 in /  1013.8 hPa NW 1.6 mph /  2.6 km/h 3.5 mph /  5.6 km/h 50 % 0.00 in /  0 mm
00:28 46.1 °F /  7.8 °C 28.5 °F /  -1.9 °C 29.94 in /  1013.8 hPa NW 1.5 mph /  2.4 km/h 3.5 mph /  5.6 km/h 50 % 0.00 in /  0 mm
00:33 46.0 °F /  7.8 °C 28.4 °F /  -2 °C 29.93 in /  1013.4 hPa NNW 1.0 mph /  1.6 km/h 3.5 mph /  5.6 km/h 50 % 0.00 in /  0 mm
00:38 45.8 °F /  7.7 °C 28.2 °F /  -2.1 °C 29.93 in /  1013.4 hPa North 2.2 mph /  3.5 km/h 3.5 mph /  5.6 km/h 50 % 0.00 in /  0 mm
00:44 45.6 °F /  7.6 °C 28.0 °F /  -2.2 °C 29.92 in /  1013.1 hPa North 1.9 mph /  3.1 km/h 4.6 mph /  7.4 km/h 50 % 0.00 in /  0 mm
00:49 45.5 °F /  7.5 °C 29.3 °F /  -1.5 °C 29.93 in /  1013.4 hPa North 1.8 mph /  2.9 km/h 4.0 mph /  6.4 km/h 53 % 0.00 in /  0 mm
00:54 45.3 °F /  7.4 °C 30.1 °F /  -1.1 °C 29.92 in /  1013.1 hPa NNE 1.1 mph /  1.8 km/h 3.0 mph /  4.8 km/h 55 % 0.00 in /  0 mm
00:59 45.1 °F /  7.3 °C 29.9 °F /  -1.2 °C 29.93 in /  1013.4 hPa NNE 1.4 mph /  2.3 km/h 2.3 mph /  3.7 km/h 55 % 0.00 in /  0 mm
01:04 44.8 °F /  7.1 °C 29.2 °F /  -1.6 °C 29.92 in /  1013.1 hPa North 1.4 mph /  2.3 km/h 4.6 mph /  7.4 km/h 54 % 0.00 in /  0 mm
01:09 44.6 °F /  7 °C 28.5 °F /  -1.9 °C 29.92 in /  1013.1 hPa NW 6.0 mph /  9.7 km/h 8.1 mph /  13 km/h 53 % 0.00 in /  0 mm
01:14 44.4 °F /  6.9 °C 27.4 °F /  -2.6 °C 29.92 in /  1013.1 hPa NNE 3.5 mph /  5.6 km/h 5.8 mph /  9.3 km/h 51 % 0.00 in /  0 mm
01:19 44.4 °F /  6.9 °C 26.9 °F /  -2.8 °C 29.92 in /  1013.1 hPa North 4.5 mph /  7.2 km/h 6.0 mph /  9.7 km/h 50 % 0.00 in /  0 mm
01:24 44.3 °F /  6.8 °C 26.8 °F /  -2.9 °C 29.91 in /  1012.8 hPa NNE 4.4 mph /  7.1 km/h 5.8 mph /  9.3 km/h 50 % 0.00 in /  0 mm
01:29 44.3 °F /  6.8 °C 27.3 °F /  -2.6 °C 29.91 in /  1012.8 hPa NNE 7.3 mph /  11.7 km/h 10.4 mph /  16.7 km/h 51 % 0.00 in /  0 mm
01:34 44.3 °F /  6.8 °C 29.1 °F /  -1.6 °C 29.91 in /  1012.8 hPa NNE 4.9 mph /  7.9 km/h 10.4 mph /  16.7 km/h 55 % 0.00 in /  0 mm
01:39 44.2 °F /  6.8 °C 29.0 °F /  -1.7 °C 29.91 in /  1012.8 hPa NNE 4.3 mph /  6.9 km/h 6.9 mph /  11.1 km/h 55 % 0.00 in /  0 mm
01:44 44.1 °F /  6.7 °C 28.9 °F /  -1.7 °C 29.91 in /  1012.8 hPa NE 4.6 mph /  7.4 km/h 6.9 mph /  11.1 km/h 55 % 0.00 in /  0 mm
01:49 43.8 °F /  6.6 °C 30.0 °F /  -1.1 °C 29.90 in /  1012.4 hPa NNE 3.3 mph /  5.3 km/h 5.8 mph /  9.3 km/h 58 % 0.00 in /  0 mm
01:55 43.7 °F /  6.5 °C 30.3 °F /  -0.9 °C 29.91 in /  1012.8 hPa NNE 4.5 mph /  7.2 km/h 6.9 mph /  11.1 km/h 59 % 0.00 in /  0 mm
02:00 43.4 °F /  6.3 °C 29.6 °F /  -1.3 °C 29.90 in /  1012.4 hPa NNE 7.4 mph /  11.9 km/h 8.1 mph /  13 km/h 58 % 0.00 in /  0 mm
02:05 43.2 °F /  6.2 °C 29.4 °F /  -1.4 °C 29.90 in /  1012.4 hPa NNE 5.9 mph /  9.5 km/h 10.4 mph /  16.7 km/h 58 % 0.00 in /  0 mm
02:10 43.0 °F /  6.1 °C 28.8 °F /  -1.8 °C 29.90 in /  1012.4 hPa NNE 4.3 mph /  6.9 km/h 9.2 mph /  14.8 km/h 57 % 0.00 in /  0 mm
02:15 42.8 °F /  6 °C 29.5 °F /  -1.4 °C 29.89 in /  1012.1 hPa NE 3.5 mph /  5.6 km/h 4.6 mph /  7.4 km/h 59 % 0.00 in /  0 mm
02:20 42.7 °F /  5.9 °C 30.6 °F /  -0.8 °C 29.89 in /  1012.1 hPa ENE 3.2 mph /  5.1 km/h 8.1 mph /  13 km/h 62 % 0.00 in /  0 mm
02:25 42.5 °F /  5.8 °C 31.2 °F /  -0.4 °C 29.90 in /  1012.4 hPa NE 2.4 mph /  3.9 km/h 4.6 mph /  7.4 km/h 64 % 0.00 in /  0 mm
02:30 42.4 °F /  5.8 °C 30.7 °F /  -0.7 °C 29.90 in /  1012.4 hPa ENE 2.2 mph /  3.5 km/h 3.5 mph /  5.6 km/h 63 % 0.00 in /  0 mm
02:35 42.3 °F /  5.7 °C 30.6 °F /  -0.8 °C 29.90 in /  1012.4 hPa NNE 1.6 mph /  2.6 km/h 3.5 mph /  5.6 km/h 63 % 0.00 in /  0 mm
02:40 42.2 °F /  5.7 °C 30.5 °F /  -0.8 °C 29.90 in /  1012.4 hPa NNE 3.8 mph /  6.1 km/h 6.9 mph /  11.1 km/h 63 % 0.00 in /  0 mm
02:45 42.1 °F /  5.6 °C 30.4 °F /  -0.9 °C 29.90 in /  1012.4 hPa NNE 3.1 mph /  5 km/h 6.0 mph /  9.7 km/h 63 % 0.00 in /  0 mm
02:50 42.0 °F /  5.6 °C 30.7 °F /  -0.7 °C 29.90 in /  1012.4 hPa ENE 2.8 mph /  4.5 km/h 6.9 mph /  11.1 km/h 64 % 0.00 in /  0 mm
02:55 41.8 °F /  5.4 °C 30.9 °F /  -0.6 °C 29.90 in /  1012.4 hPa ENE 2.8 mph /  4.5 km/h 4.6 mph /  7.4 km/h 65 % 0.00 in /  0 mm
03:01 41.6 °F /  5.3 °C 30.7 °F /  -0.7 °C 29.90 in /  1012.4 hPa NE 4.2 mph /  6.8 km/h 6.9 mph /  11.1 km/h 65 % 0.00 in /  0 mm
03:06 41.5 °F /  5.3 °C 30.6 °F /  -0.8 °C 29.89 in /  1012.1 hPa ENE 4.3 mph /  6.9 km/h 7.0 mph /  11.3 km/h 65 % 0.00 in /  0 mm
03:11 41.4 °F /  5.2 °C 30.5 °F /  -0.8 °C 29.90 in /  1012.4 hPa ENE 4.4 mph /  7.1 km/h 5.8 mph /  9.3 km/h 65 % 0.00 in /  0 mm
03:16 41.3 °F /  5.2 °C 30.4 °F /  -0.9 °C 29.90 in /  1012.4 hPa ENE 2.8 mph /  4.5 km/h 4.6 mph /  7.4 km/h 65 % 0.00 in /  0 mm
03:21 41.2 °F /  5.1 °C 30.7 °F /  -0.7 °C 29.91 in /  1012.8 hPa ENE 3.2 mph /  5.1 km/h 4.6 mph /  7.4 km/h 66 % 0.00 in /  0 mm
03:26 41.1 °F /  5.1 °C 30.6 °F /  -0.8 °C 29.91 in /  1012.8 hPa NE 2.7 mph /  4.3 km/h 4.0 mph /  6.4 km/h 66 % 0.00 in /  0 mm
03:31 41.1 °F /  5.1 °C 30.6 °F /  -0.8 °C 29.91 in /  1012.8 hPa ENE 2.2 mph /  3.5 km/h 3.5 mph /  5.6 km/h 66 % 0.00 in /  0 mm
03:36 41.0 °F /  5 °C 30.5 °F /  -0.8 °C 29.90 in /  1012.4 hPa ENE 2.0 mph /  3.2 km/h 4.0 mph /  6.4 km/h 66 % 0.00 in /  0 mm
03:41 41.0 °F /  5 °C 30.1 °F /  -1.1 °C 29.88 in /  1011.7 hPa ENE 3.0 mph /  4.8 km/h 4.6 mph /  7.4 km/h 65 % 0.00 in /  0 mm
03:46 40.9 °F /  4.9 °C 30.0 °F /  -1.1 °C 29.89 in /  1012.1 hPa NE 2.2 mph /  3.5 km/h 3.5 mph /  5.6 km/h 65 % 0.00 in /  0 mm
03:51 40.9 °F /  4.9 °C 30.4 °F /  -0.9 °C 29.88 in /  1011.7 hPa NE 1.0 mph /  1.6 km/h 2.3 mph /  3.7 km/h 66 % 0.00 in /  0 mm
03:56 40.8 °F /  4.9 °C 30.7 °F /  -0.7 °C 29.88 in /  1011.7 hPa ENE 1.2 mph /  1.9 km/h 3.5 mph /  5.6 km/h 67 % 0.00 in /  0 mm
04:01 40.8 °F /  4.9 °C 30.7 °F /  -0.7 °C 29.88 in /  1011.7 hPa ENE 1.0 mph /  1.6 km/h 2.0 mph /  3.2 km/h 67 % 0.00 in /  0 mm
04:07 40.7 °F /  4.8 °C 30.6 °F /  -0.8 °C 29.88 in /  1011.7 hPa ENE 0.6 mph /  1 km/h 1.2 mph /  1.9 km/h 67 % 0.00 in /  0 mm
04:12 40.7 °F /  4.8 °C 31.0 °F /  -0.6 °C 29.88 in /  1011.7 hPa ENE 0.5 mph /  0.8 km/h 3.5 mph /  5.6 km/h 68 % 0.00 in /  0 mm
04:17 40.6 °F /  4.8 °C 31.2 °F /  -0.4 °C 29.88 in /  1011.7 hPa ENE 1.7 mph /  2.7 km/h 3.5 mph /  5.6 km/h 69 % 0.00 in /  0 mm
04:22 40.6 °F /  4.8 °C 31.2 °F /  -0.4 °C 29.88 in /  1011.7 hPa NE 2.2 mph /  3.5 km/h 4.6 mph /  7.4 km/h 69 % 0.00 in /  0 mm
04:27 40.5 °F /  4.7 °C 31.1 °F /  -0.5 °C 29.88 in /  1011.7 hPa NE 1.7 mph /  2.7 km/h 3.5 mph /  5.6 km/h 69 % 0.00 in /  0 mm
04:32 40.5 °F /  4.7 °C 31.5 °F /  -0.3 °C 29.87 in /  1011.4 hPa East 3.4 mph /  5.5 km/h 4.6 mph /  7.4 km/h 70 % 0.00 in /  0 mm
04:37 40.4 °F /  4.7 °C 29.6 °F /  -1.3 °C 29.87 in /  1011.4 hPa ENE 8.3 mph /  13.4 km/h 11.5 mph /  18.5 km/h 65 % 0.00 in /  0 mm
04:42 40.2 °F /  4.6 °C 29.0 °F /  -1.7 °C 29.87 in /  1011.4 hPa ENE 4.7 mph /  7.6 km/h 9.2 mph /  14.8 km/h 64 % 0.00 in /  0 mm
04:47 40.0 °F /  4.4 °C 29.2 °F /  -1.6 °C 29.87 in /  1011.4 hPa ENE 11.0 mph /  17.7 km/h 15.0 mph /  24.1 km/h 65 % 0.00 in /  0 mm
04:52 39.8 °F /  4.3 °C 28.6 °F /  -1.9 °C 29.87 in /  1011.4 hPa North 8.6 mph /  13.8 km/h 19.6 mph /  31.5 km/h 64 % 0.00 in /  0 mm
04:57 39.6 °F /  4.2 °C 28.8 °F /  -1.8 °C 29.87 in /  1011.4 hPa ENE 6.3 mph /  10.1 km/h 10.4 mph /  16.7 km/h 65 % 0.00 in /  0 mm
05:02 39.4 °F /  4.1 °C 29.0 °F /  -1.7 °C 29.86 in /  1011.1 hPa NNE 6.6 mph /  10.6 km/h 11.5 mph /  18.5 km/h 66 % 0.00 in /  0 mm
05:08 39.0 °F /  3.9 °C 29.0 °F /  -1.7 °C 29.86 in /  1011.1 hPa NNE 8.5 mph /  13.7 km/h 10.4 mph /  16.7 km/h 67 % 0.00 in /  0 mm
05:13 38.7 °F /  3.7 °C 28.7 °F /  -1.8 °C 29.85 in /  1010.7 hPa NE 5.0 mph /  8 km/h 12.7 mph /  20.4 km/h 67 % 0.00 in /  0 mm
05:18 38.4 °F /  3.6 °C 28.8 °F /  -1.8 °C 29.86 in /  1011.1 hPa NNE 5.6 mph /  9 km/h 6.9 mph /  11.1 km/h 68 % 0.00 in /  0 mm
05:23 38.1 °F /  3.4 °C 28.8 °F /  -1.8 °C 29.86 in /  1011.1 hPa ENE 5.8 mph /  9.3 km/h 11.5 mph /  18.5 km/h 69 % 0.00 in /  0 mm
05:28 37.8 °F /  3.2 °C 28.9 °F /  -1.7 °C 29.86 in /  1011.1 hPa NE 7.0 mph /  11.3 km/h 13.0 mph /  20.9 km/h 70 % 0.00 in /  0 mm
05:33 37.5 °F /  3.1 °C 28.6 °F /  -1.9 °C 29.85 in /  1010.7 hPa NE 8.0 mph /  12.9 km/h 14.0 mph /  22.5 km/h 70 % 0.00 in /  0 mm
05:38 37.2 °F /  2.9 °C 28.7 °F /  -1.8 °C 29.85 in /  1010.7 hPa NE 5.9 mph /  9.5 km/h 8.1 mph /  13 km/h 71 % 0.00 in /  0 mm
05:43 37.1 °F /  2.8 °C 28.6 °F /  -1.9 °C 29.85 in /  1010.7 hPa North 5.0 mph /  8 km/h 8.1 mph /  13 km/h 71 % 0.00 in /  0 mm
05:48 37.0 °F /  2.8 °C 28.8 °F /  -1.8 °C 29.85 in /  1010.7 hPa NE 6.0 mph /  9.7 km/h 12.0 mph /  19.3 km/h 72 % 0.00 in /  0 mm
05:53 36.8 °F /  2.7 °C 28.6 °F /  -1.9 °C 29.85 in /  1010.7 hPa NE 7.0 mph /  11.3 km/h 12.0 mph /  19.3 km/h 72 % 0.00 in /  0 mm
05:58 36.6 °F /  2.6 °C 28.8 °F /  -1.8 °C 29.85 in /  1010.7 hPa NE 5.0 mph /  8 km/h 9.2 mph /  14.8 km/h 73 % 0.00 in /  0 mm
06:03 36.5 °F /  2.5 °C 29.0 °F /  -1.7 °C 29.85 in /  1010.7 hPa ENE 6.0 mph /  9.7 km/h 9.2 mph /  14.8 km/h 74 % 0.00 in /  0 mm
06:08 36.3 °F /  2.4 °C 28.8 °F /  -1.8 °C 29.85 in /  1010.7 hPa ENE 4.2 mph /  6.8 km/h 5.8 mph /  9.3 km/h 74 % 0.00 in /  0 mm
06:13 36.0 °F /  2.2 °C 28.5 °F /  -1.9 °C 29.85 in /  1010.7 hPa ENE 10.9 mph /  17.5 km/h 13.8 mph /  22.2 km/h 74 % 0.00 in /  0 mm
06:18 35.8 °F /  2.1 °C 29.0 °F /  -1.7 °C 29.86 in /  1011.1 hPa ENE 8.9 mph /  14.3 km/h 13.8 mph /  22.2 km/h 76 % 0.00 in /  0 mm
06:23 35.6 °F /  2 °C 29.1 °F /  -1.6 °C 29.86 in /  1011.1 hPa NE 6.8 mph /  10.9 km/h 11.5 mph /  18.5 km/h 77 % 0.00 in /  0 mm
06:28 35.6 °F /  2 °C 29.4 °F /  -1.4 °C 29.87 in /  1011.4 hPa NE 7.5 mph /  12.1 km/h 13.8 mph /  22.2 km/h 78 % 0.00 in /  0 mm
06:33 35.6 °F /  2 °C 29.4 °F /  -1.4 °C 29.87 in /  1011.4 hPa ENE 4.6 mph /  7.4 km/h 11.5 mph /  18.5 km/h 78 % 0.00 in /  0 mm
06:39 35.5 °F /  1.9 °C 29.3 °F /  -1.5 °C 29.88 in /  1011.7 hPa ENE 6.1 mph /  9.8 km/h 11.5 mph /  18.5 km/h 78 % 0.00 in /  0 mm
06:44 35.4 °F /  1.9 °C 29.8 °F /  -1.2 °C 29.88 in /  1011.7 hPa NE 5.9 mph /  9.5 km/h 10.4 mph /  16.7 km/h 80 % 0.00 in /  0 mm
06:49 35.3 °F /  1.8 °C 29.7 °F /  -1.3 °C 29.88 in /  1011.7 hPa ENE 7.7 mph /  12.4 km/h 12.0 mph /  19.3 km/h 80 % 0.00 in /  0 mm
06:54 35.3 °F /  1.8 °C 30.1 °F /  -1.1 °C 29.88 in /  1011.7 hPa ENE 7.9 mph /  12.7 km/h 11.5 mph /  18.5 km/h 81 % 0.00 in /  0 mm
06:59 35.1 °F /  1.7 °C 29.9 °F /  -1.2 °C 29.89 in /  1012.1 hPa ENE 8.9 mph /  14.3 km/h 11.5 mph /  18.5 km/h 81 % 0.00 in /  0 mm
07:04 34.7 °F /  1.5 °C 30.1 °F /  -1.1 °C 29.88 in /  1011.7 hPa ENE 5.8 mph /  9.3 km/h 10.4 mph /  16.7 km/h 83 % 0.00 in /  0 mm
07:09 34.3 °F /  1.3 °C 30.3 °F /  -0.9 °C 29.88 in /  1011.7 hPa NE 7.9 mph /  12.7 km/h 12.7 mph /  20.4 km/h 85 % 0.00 in /  0 mm
07:14 33.9 °F /  1.1 °C 30.2 °F /  -1 °C 29.88 in /  1011.7 hPa ENE 8.2 mph /  13.2 km/h 11.5 mph /  18.5 km/h 86 % 0.00 in /  0 mm
07:19 33.5 °F /  0.8 °C 30.3 °F /  -0.9 °C 29.88 in /  1011.7 hPa ENE 7.9 mph /  12.7 km/h 12.7 mph /  20.4 km/h 88 % 0.00 in /  0 mm
07:24 33.3 °F /  0.7 °C 30.4 °F /  -0.9 °C 29.88 in /  1011.7 hPa ENE 6.5 mph /  10.5 km/h 11.5 mph /  18.5 km/h 89 % 0.00 in /  0 mm
07:29 33.0 °F /  0.6 °C 30.4 °F /  -0.9 °C 29.87 in /  1011.4 hPa ENE 6.1 mph /  9.8 km/h 11.5 mph /  18.5 km/h 90 % 0.00 in /  0 mm
07:34 32.9 °F /  0.5 °C 30.6 °F /  -0.8 °C 29.87 in /  1011.4 hPa ENE 6.8 mph /  10.9 km/h 11.5 mph /  18.5 km/h 91 % 0.00 in /  0 mm
07:40 32.8 °F /  0.4 °C 30.5 °F /  -0.8 °C 29.87 in /  1011.4 hPa ENE 8.9 mph /  14.3 km/h 11.5 mph /  18.5 km/h 91 % 0.00 in /  0 mm
07:45 32.7 °F /  0.4 °C 30.6 °F /  -0.8 °C 29.87 in /  1011.4 hPa ENE 8.3 mph /  13.4 km/h 11.5 mph /  18.5 km/h 92 % 0.00 in /  0 mm
07:50 32.6 °F /  0.3 °C 30.5 °F /  -0.8 °C 29.86 in /  1011.1 hPa East 9.1 mph /  14.6 km/h 11.5 mph /  18.5 km/h 92 % 0.01 in /  0.25 mm
07:55 32.5 °F /  0.3 °C 30.4 °F /  -0.9 °C 29.85 in /  1010.7 hPa ENE 5.6 mph /  9 km/h 11.5 mph /  18.5 km/h 92 % 0.01 in /  0.25 mm
08:00 32.4 °F /  0.2 °C 30.6 °F /  -0.8 °C 29.85 in /  1010.7 hPa ENE 9.1 mph /  14.6 km/h 13.8 mph /  22.2 km/h 93 % 0.01 in /  0.25 mm
08:05 32.4 °F /  0.2 °C 30.6 °F /  -0.8 °C 29.85 in /  1010.7 hPa ENE 9.2 mph /  14.8 km/h 13.0 mph /  20.9 km/h 93 % 0.01 in /  0.25 mm
08:10 32.3 °F /  0.2 °C 30.5 °F /  -0.8 °C 29.85 in /  1010.7 hPa ENE 6.9 mph /  11.1 km/h 10.4 mph /  16.7 km/h 93 % 0.01 in /  0.25 mm
08:15 32.4 °F /  0.2 °C 30.6 °F /  -0.8 °C 29.85 in /  1010.7 hPa NE 6.1 mph /  9.8 km/h 9.2 mph /  14.8 km/h 93 % 0.01 in /  0.25 mm
08:20 32.3 °F /  0.2 °C 30.8 °F /  -0.7 °C 29.85 in /  1010.7 hPa ENE 8.5 mph /  13.7 km/h 11.0 mph /  17.7 km/h 94 % 0.02 in /  0.51 mm
08:25 32.2 °F /  0.1 °C 30.7 °F /  -0.7 °C 29.85 in /  1010.7 hPa NE 5.6 mph /  9 km/h 9.2 mph /  14.8 km/h 94 % 0.02 in /  0.51 mm
08:30 32.3 °F /  0.2 °C 30.8 °F /  -0.7 °C 29.84 in /  1010.4 hPa ENE 9.0 mph /  14.5 km/h 15.0 mph /  24.1 km/h 94 % 0.02 in /  0.51 mm
08:35 32.3 °F /  0.2 °C 30.8 °F /  -0.7 °C 29.84 in /  1010.4 hPa ENE 8.4 mph /  13.5 km/h 12.7 mph /  20.4 km/h 94 % 0.02 in /  0.51 mm
08:41 32.3 °F /  0.2 °C 30.8 °F /  -0.7 °C 29.84 in /  1010.4 hPa NE 8.8 mph /  14.2 km/h 13.0 mph /  20.9 km/h 94 % 0.02 in /  0.51 mm
08:46 32.3 °F /  0.2 °C 30.8 °F /  -0.7 °C 29.84 in /  1010.4 hPa ENE 8.3 mph /  13.4 km/h 10.4 mph /  16.7 km/h 94 % 0.02 in /  0.51 mm
08:51 32.4 °F /  0.2 °C 30.9 °F /  -0.6 °C 29.84 in /  1010.4 hPa ENE 8.0 mph /  12.9 km/h 11.5 mph /  18.5 km/h 94 % 0.02 in /  0.51 mm
08:56 32.5 °F /  0.3 °C 31.0 °F /  -0.6 °C 29.84 in /  1010.4 hPa NE 6.2 mph /  10 km/h 6.9 mph /  11.1 km/h 94 % 0.02 in /  0.51 mm
09:01 32.5 °F /  0.3 °C 31.0 °F /  -0.6 °C 29.83 in /  1010 hPa ENE 8.5 mph /  13.7 km/h 10.4 mph /  16.7 km/h 94 % 0.02 in /  0.51 mm
09:06 32.6 °F /  0.3 °C 31.1 °F /  -0.5 °C 29.83 in /  1010 hPa ENE 6.4 mph /  10.3 km/h 9.2 mph /  14.8 km/h 94 % 0.03 in /  0.76 mm
09:11 32.6 °F /  0.3 °C 31.1 °F /  -0.5 °C 29.83 in /  1010 hPa NE 8.4 mph /  13.5 km/h 11.5 mph /  18.5 km/h 94 % 0.03 in /  0.76 mm
09:16 32.5 °F /  0.3 °C 31.0 °F /  -0.6 °C 29.83 in /  1010 hPa ENE 6.2 mph /  10 km/h 9.2 mph /  14.8 km/h 94 % 0.04 in /  1.02 mm
09:21 32.5 °F /  0.3 °C 31.0 °F /  -0.6 °C 29.83 in /  1010 hPa NE 6.2 mph /  10 km/h 9.2 mph /  14.8 km/h 94 % 0.03 in /  0.76 mm
09:26 32.5 °F /  0.3 °C 31.0 °F /  -0.6 °C 29.83 in /  1010 hPa ENE 9.6 mph /  15.4 km/h 13.0 mph /  20.9 km/h 94 % 0.03 in /  0.76 mm
09:31 32.4 °F /  0.2 °C 30.9 °F /  -0.6 °C 29.84 in /  1010.4 hPa NE 6.2 mph /  10 km/h 11.5 mph /  18.5 km/h 94 % 0.04 in /  1.02 mm
09:36 32.4 °F /  0.2 °C 30.9 °F /  -0.6 °C 29.83 in /  1010 hPa ENE 3.6 mph /  5.8 km/h 10.4 mph /  16.7 km/h 94 % 0.04 in /  1.02 mm
09:41 32.3 °F /  0.2 °C 30.8 °F /  -0.7 °C 29.83 in /  1010 hPa NE 5.9 mph /  9.5 km/h 9.2 mph /  14.8 km/h 94 % 0.05 in /  1.27 mm
09:46 32.3 °F /  0.2 °C 30.8 °F /  -0.7 °C 29.82 in /  1009.7 hPa ENE 4.8 mph /  7.7 km/h 10.4 mph /  16.7 km/h 94 % 0.05 in /  1.27 mm
09:52 32.3 °F /  0.2 °C 30.8 °F /  -0.7 °C 29.82 in /  1009.7 hPa NE 5.0 mph /  8 km/h 9.2 mph /  14.8 km/h 94 % 0.04 in /  1.02 mm
09:57 32.1 °F /  0.1 °C 30.6 °F /  -0.8 °C 29.82 in /  1009.7 hPa ENE 4.9 mph /  7.9 km/h 10.0 mph /  16.1 km/h 94 % 0.05 in /  1.27 mm
10:02 32.2 °F /  0.1 °C 30.9 °F /  -0.6 °C 29.83 in /  1010 hPa NE 5.6 mph /  9 km/h 10.0 mph /  16.1 km/h 95 % 0.05 in /  1.27 mm
10:07 32.1 °F /  0.1 °C 30.6 °F /  -0.8 °C 29.82 in /  1009.7 hPa ENE 8.3 mph /  13.4 km/h 9.2 mph /  14.8 km/h 94 % 0.05 in /  1.27 mm
10:12 32.2 °F /  0.1 °C 30.7 °F /  -0.7 °C 29.82 in /  1009.7 hPa NE 4.1 mph /  6.6 km/h 8.1 mph /  13 km/h 94 % 0.05 in /  1.27 mm
10:17 32.2 °F /  0.1 °C 30.7 °F /  -0.7 °C 29.81 in /  1009.4 hPa NE 2.9 mph /  4.7 km/h 10.4 mph /  16.7 km/h 94 % 0.04 in /  1.02 mm
10:22 32.2 °F /  0.1 °C 30.9 °F /  -0.6 °C 29.80 in /  1009 hPa ENE 2.5 mph /  4 km/h 7.0 mph /  11.3 km/h 95 % 0.05 in /  1.27 mm
10:27 32.2 °F /  0.1 °C 30.9 °F /  -0.6 °C 29.80 in /  1009 hPa ENE 5.0 mph /  8 km/h 10.4 mph /  16.7 km/h 95 % 0.04 in /  1.02 mm
10:32 31.9 °F /  -0.1 °C 30.4 °F /  -0.9 °C 29.80 in /  1009 hPa ENE 7.7 mph /  12.4 km/h 11.5 mph /  18.5 km/h 94 % 0.04 in /  1.02 mm
10:37 32.0 °F /  0 °C 30.7 °F /  -0.7 °C 29.81 in /  1009.4 hPa ENE 6.6 mph /  10.6 km/h 9.2 mph /  14.8 km/h 95 % 0.05 in /  1.27 mm
10:42 32.2 °F /  0.1 °C 30.9 °F /  -0.6 °C 29.81 in /  1009.4 hPa ENE 5.9 mph /  9.5 km/h 8.1 mph /  13 km/h 95 % 0.04 in /  1.02 mm
10:43 32.2 °F /  0.1 °C 30.9 °F /  -0.6 °C 29.81 in /  1009.4 hPa ENE 5.8 mph /  9.3 km/h 8.1 mph /  13 km/h 95 % 0.04 in /  1.02 mm
10:48 32.2 °F /  0.1 °C 30.9 °F /  -0.6 °C 29.80 in /  1009 hPa ENE 6.1 mph /  9.8 km/h 8.0 mph /  12.9 km/h 95 % 0.04 in /  1.02 mm
10:53 32.3 °F /  0.2 °C 31.0 °F /  -0.6 °C 29.80 in /  1009 hPa NE 5.0 mph /  8 km/h 9.0 mph /  14.5 km/h 95 % 0.00 in /  0 mm
10:58 32.4 °F /  0.2 °C 31.1 °F /  -0.5 °C 29.79 in /  1008.7 hPa NNE 2.9 mph /  4.7 km/h 5.8 mph /  9.3 km/h 95 % 0.04 in /  1.02 mm
11:03 32.5 °F /  0.3 °C 31.2 °F /  -0.4 °C 29.79 in /  1008.7 hPa NE 2.0 mph /  3.2 km/h 8.0 mph /  12.9 km/h 95 % 0.00 in /  0 mm
11:08 32.5 °F /  0.3 °C 31.2 °F /  -0.4 °C 29.79 in /  1008.7 hPa NNE 5.0 mph /  8 km/h 7.0 mph /  11.3 km/h 95 % 0.00 in /  0 mm
11:13 32.6 °F /  0.3 °C 31.3 °F /  -0.4 °C 29.79 in /  1008.7 hPa NNE 3.0 mph /  4.8 km/h 8.0 mph /  12.9 km/h 95 % 0.00 in /  0 mm
11:18 32.6 °F /  0.3 °C 31.3 °F /  -0.4 °C 29.81 in /  1009.4 hPa NE 3.0 mph /  4.8 km/h 7.0 mph /  11.3 km/h 95 % 0.00 in /  0 mm
11:23 32.6 °F /  0.3 °C 31.4 °F /  -0.3 °C 29.80 in /  1009 hPa NE 2.0 mph /  3.2 km/h 4.0 mph /  6.4 km/h 95 % 0.00 in /  0 mm
11:28 32.7 °F /  0.4 °C 31.4 °F /  -0.3 °C 29.79 in /  1008.7 hPa NNE 2.0 mph /  3.2 km/h 4.0 mph /  6.4 km/h 95 % 0.00 in /  0 mm
11:33 32.7 °F /  0.4 °C 31.4 °F /  -0.3 °C 29.80 in /  1009 hPa NNE 3.0 mph /  4.8 km/h 6.0 mph /  9.7 km/h 95 % 0.00 in /  0 mm
11:38 32.8 °F /  0.4 °C 31.5 °F /  -0.3 °C 29.80 in /  1009 hPa NNE 3.0 mph /  4.8 km/h 7.0 mph /  11.3 km/h 95 % 0.00 in /  0 mm
11:43 32.8 °F /  0.4 °C 31.5 °F /  -0.3 °C 29.80 in /  1009 hPa NNE 3.0 mph /  4.8 km/h 6.0 mph /  9.7 km/h 95 % 0.00 in /  0 mm
11:48 32.8 °F /  0.4 °C 31.5 °F /  -0.3 °C 29.80 in /  1009 hPa North 3.0 mph /  4.8 km/h 7.0 mph /  11.3 km/h 95 % 0.00 in /  0 mm
11:53 32.9 °F /  0.5 °C 31.6 °F /  -0.2 °C 29.79 in /  1008.7 hPa NNE 6.0 mph /  9.7 km/h 8.0 mph /  12.9 km/h 95 % 0.00 in /  0 mm
11:58 32.9 °F /  0.5 °C 31.6 °F /  -0.2 °C 29.78 in /  1008.4 hPa North 5.0 mph /  8 km/h 6.9 mph /  11.1 km/h 95 % 0.04 in /  1.02 mm
12:03 32.8 °F /  0.4 °C 31.5 °F /  -0.3 °C 29.78 in /  1008.4 hPa North 5.0 mph /  8 km/h 8.1 mph /  13 km/h 95 % 0.04 in /  1.02 mm
12:08 32.8 °F /  0.4 °C 31.5 °F /  -0.3 °C 29.79 in /  1008.7 hPa NNW 5.3 mph /  8.5 km/h 7.0 mph /  11.3 km/h 95 % 0.04 in /  1.02 mm
12:13 32.8 °F /  0.4 °C 31.5 °F /  -0.3 °C 29.78 in /  1008.4 hPa NNE 4.4 mph /  7.1 km/h 6.9 mph /  11.1 km/h 95 % 0.04 in /  1.02 mm
12:18 32.8 °F /  0.4 °C 31.5 °F /  -0.3 °C 29.79 in /  1008.7 hPa NNE 3.5 mph /  5.6 km/h 4.6 mph /  7.4 km/h 95 % 0.04 in /  1.02 mm
12:23 32.7 °F /  0.4 °C 31.4 °F /  -0.3 °C 29.78 in /  1008.4 hPa NNW 3.5 mph /  5.6 km/h 8.0 mph /  12.9 km/h 95 % 0.04 in /  1.02 mm
12:28 32.8 °F /  0.4 °C 31.5 °F /  -0.3 °C 29.78 in /  1008.4 hPa NW 3.0 mph /  4.8 km/h 4.6 mph /  7.4 km/h 95 % 0.05 in /  1.27 mm
12:33 32.8 °F /  0.4 °C 31.5 °F /  -0.3 °C 29.78 in /  1008.4 hPa North 2.0 mph /  3.2 km/h 4.0 mph /  6.4 km/h 95 % 0.05 in /  1.27 mm
12:39 32.8 °F /  0.4 °C 31.5 °F /  -0.3 °C 29.77 in /  1008 hPa NNE 4.4 mph /  7.1 km/h 9.2 mph /  14.8 km/h 95 % 0.05 in /  1.27 mm
12:44 32.7 °F /  0.4 °C 31.4 °F /  -0.3 °C 29.77 in /  1008 hPa NNW 8.3 mph /  13.4 km/h 11.5 mph /  18.5 km/h 95 % 0.05 in /  1.27 mm
12:49 32.6 °F /  0.3 °C 31.3 °F /  -0.4 °C 29.77 in /  1008 hPa North 5.8 mph /  9.3 km/h 10.0 mph /  16.1 km/h 95 % 0.04 in /  1.02 mm
12:54 32.5 °F /  0.3 °C 31.2 °F /  -0.4 °C 29.77 in /  1008 hPa NNE 5.8 mph /  9.3 km/h 8.1 mph /  13 km/h 95 % 0.05 in /  1.27 mm
12:59 32.5 °F /  0.3 °C 31.2 °F /  -0.4 °C 29.76 in /  1007.7 hPa North 6.1 mph /  9.8 km/h 10.4 mph /  16.7 km/h 95 % 0.04 in /  1.02 mm
13:04 32.5 °F /  0.3 °C 31.2 °F /  -0.4 °C 29.76 in /  1007.7 hPa North 5.9 mph /  9.5 km/h 10.4 mph /  16.7 km/h 95 % 0.05 in /  1.27 mm
13:09 32.6 °F /  0.3 °C 31.3 °F /  -0.4 °C 29.76 in /  1007.7 hPa North 6.4 mph /  10.3 km/h 10.4 mph /  16.7 km/h 95 % 0.05 in /  1.27 mm
13:14 32.6 °F /  0.3 °C 31.3 °F /  -0.4 °C 29.76 in /  1007.7 hPa North 3.5 mph /  5.6 km/h 9.2 mph /  14.8 km/h 95 % 0.05 in /  1.27 mm
13:19 32.7 °F /  0.4 °C 31.4 °F /  -0.3 °C 29.75 in /  1007.3 hPa NNE 5.1 mph /  8.2 km/h 9.2 mph /  14.8 km/h 95 % 0.05 in /  1.27 mm
13:24 32.7 °F /  0.4 °C 31.4 °F /  -0.3 °C 29.76 in /  1007.7 hPa NNW 3.1 mph /  5 km/h 6.9 mph /  11.1 km/h 95 % 0.04 in /  1.02 mm
13:26 32.7 °F /  0.4 °C 31.4 °F /  -0.3 °C 29.76 in /  1007.7 hPa NNW 1.9 mph /  3.1 km/h 4.6 mph /  7.4 km/h 95 % 0.04 in /  1.02 mm
13:31 32.8 °F /  0.4 °C 31.5 °F /  -0.3 °C 29.75 in /  1007.3 hPa NW 3.5 mph /  5.6 km/h 5.8 mph /  9.3 km/h 95 % 0.05 in /  1.27 mm
13:36 32.8 °F /  0.4 °C 31.5 °F /  -0.3 °C 29.75 in /  1007.3 hPa North 3.3 mph /  5.3 km/h 5.8 mph /  9.3 km/h 95 % 0.04 in /  1.02 mm
13:41 32.8 °F /  0.4 °C 31.5 °F /  -0.3 °C 29.75 in /  1007.3 hPa NW 2.5 mph /  4 km/h 6.9 mph /  11.1 km/h 95 % 0.04 in /  1.02 mm
13:46 32.8 °F /  0.4 °C 31.5 °F /  -0.3 °C 29.75 in /  1007.3 hPa NNW 2.1 mph /  3.4 km/h 5.0 mph /  8 km/h 95 % 0.05 in /  1.27 mm
13:52 32.9 °F /  0.5 °C 31.6 °F /  -0.2 °C 29.75 in /  1007.3 hPa NW 3.0 mph /  4.8 km/h 8.1 mph /  13 km/h 95 % 0.04 in /  1.02 mm
13:57 33.0 °F /  0.6 °C 31.7 °F /  -0.2 °C 29.75 in /  1007.3 hPa NNW 3.2 mph /  5.1 km/h 4.6 mph /  7.4 km/h 95 % 0.04 in /  1.02 mm
14:02 32.9 °F /  0.5 °C 31.4 °F /  -0.3 °C 29.75 in /  1007.3 hPa North 4.5 mph /  7.2 km/h 5.0 mph /  8 km/h 94 % 0.03 in /  0.76 mm
14:07 32.8 °F /  0.4 °C 31.5 °F /  -0.3 °C 29.75 in /  1007.3 hPa NNE 3.8 mph /  6.1 km/h 6.0 mph /  9.7 km/h 95 % 0.03 in /  0.76 mm
14:12 32.9 °F /  0.5 °C 31.4 °F /  -0.3 °C 29.75 in /  1007.3 hPa NNE 2.9 mph /  4.7 km/h 8.1 mph /  13 km/h 94 % 0.03 in /  0.76 mm
14:17 32.9 °F /  0.5 °C 31.6 °F /  -0.2 °C 29.75 in /  1007.3 hPa NW 2.7 mph /  4.3 km/h 4.6 mph /  7.4 km/h 95 % 0.02 in /  0.51 mm
14:22 32.8 °F /  0.4 °C 31.3 °F /  -0.4 °C 29.75 in /  1007.3 hPa NNW 4.1 mph /  6.6 km/h 6.9 mph /  11.1 km/h 94 % 0.02 in /  0.51 mm
14:27 32.8 °F /  0.4 °C 31.3 °F /  -0.4 °C 29.75 in /  1007.3 hPa North 2.8 mph /  4.5 km/h 6.0 mph /  9.7 km/h 94 % 0.02 in /  0.51 mm
14:32 32.6 °F /  0.3 °C 31.1 °F /  -0.5 °C 29.75 in /  1007.3 hPa NNE 4.4 mph /  7.1 km/h 7.0 mph /  11.3 km/h 94 % 0.02 in /  0.51 mm
14:37 32.6 °F /  0.3 °C 31.1 °F /  -0.5 °C 29.75 in /  1007.3 hPa NW 1.7 mph /  2.7 km/h 3.5 mph /  5.6 km/h 94 % 0.02 in /  0.51 mm
14:42 32.8 °F /  0.4 °C 31.3 °F /  -0.4 °C 29.74 in /  1007 hPa NW 0.4 mph /  0.6 km/h 2.3 mph /  3.7 km/h 94 % 0.02 in /  0.51 mm
14:47 33.1 °F /  0.6 °C 31.8 °F /  -0.1 °C 29.74 in /  1007 hPa WNW 1.9 mph /  3.1 km/h 3.5 mph /  5.6 km/h 95 % 0.01 in /  0.25 mm
14:53 33.3 °F /  0.7 °C 32.0 °F /  0 °C 29.74 in /  1007 hPa NNE 1.0 mph /  1.6 km/h 3.5 mph /  5.6 km/h 95 % 0.01 in /  0.25 mm
14:58 33.4 °F /  0.8 °C 31.9 °F /  -0.1 °C 29.74 in /  1007 hPa NNW 0.4 mph /  0.6 km/h 3.5 mph /  5.6 km/h 94 % 0.02 in /  0.51 mm
15:03 33.6 °F /  0.9 °C 32.3 °F /  0.2 °C 29.74 in /  1007 hPa NNW 1.5 mph /  2.4 km/h 4.6 mph /  7.4 km/h 95 % 0.02 in /  0.51 mm
15:08 33.7 °F /  0.9 °C 32.2 °F /  0.1 °C 29.74 in /  1007 hPa NW 1.0 mph /  1.6 km/h 6.0 mph /  9.7 km/h 94 % 0.00 in /  0 mm
15:13 33.7 °F /  0.9 °C 32.2 °F /  0.1 °C 29.74 in /  1007 hPa WNW 3.9 mph /  6.3 km/h 5.8 mph /  9.3 km/h 94 % 0.02 in /  0.51 mm
15:18 33.7 °F /  0.9 °C 32.2 °F /  0.1 °C 29.74 in /  1007 hPa NNW 3.4 mph /  5.5 km/h 7.0 mph /  11.3 km/h 94 % 0.03 in /  0.76 mm
15:23 33.7 °F /  0.9 °C 32.1 °F /  0.1 °C 29.74 in /  1007 hPa NW 2.0 mph /  3.2 km/h 9.0 mph /  14.5 km/h 94 % 0.00 in /  0 mm
15:28 33.6 °F /  0.9 °C 32.1 °F /  0.1 °C 29.74 in /  1007 hPa NW 2.3 mph /  3.7 km/h 4.6 mph /  7.4 km/h 94 % 0.02 in /  0.51 mm
15:33 33.6 °F /  0.9 °C 32.1 °F /  0.1 °C 29.74 in /  1007 hPa NW 3.0 mph /  4.8 km/h 9.0 mph /  14.5 km/h 94 % 0.00 in /  0 mm
15:38 33.6 °F /  0.9 °C 32.1 °F /  0.1 °C 29.75 in /  1007.3 hPa NW 2.0 mph /  3.2 km/h 6.0 mph /  9.7 km/h 94 % 0.00 in /  0 mm
15:43 33.7 °F /  0.9 °C 32.1 °F /  0.1 °C 29.75 in /  1007.3 hPa NW 2.0 mph /  3.2 km/h 6.0 mph /  9.7 km/h 94 % 0.00 in /  0 mm
15:48 33.7 °F /  0.9 °C 31.9 °F /  -0.1 °C 29.74 in /  1007 hPa NW 5.0 mph /  8 km/h 8.0 mph /  12.9 km/h 93 % 0.00 in /  0 mm
15:53 33.7 °F /  0.9 °C 31.9 °F /  -0.1 °C 29.75 in /  1007.3 hPa NW 1.0 mph /  1.6 km/h 6.0 mph /  9.7 km/h 93 % 0.00 in /  0 mm
15:58 33.8 °F /  1 °C 32.0 °F /  0 °C 29.75 in /  1007.3 hPa WNW 4.6 mph /  7.4 km/h 6.9 mph /  11.1 km/h 93 % 0.01 in /  0.25 mm
16:03 33.8 °F /  1 °C 31.7 °F /  -0.2 °C 29.75 in /  1007.3 hPa WNW 7.0 mph /  11.3 km/h 16.0 mph /  25.7 km/h 92 % 0.00 in /  0 mm
16:08 33.8 °F /  1 °C 31.5 °F /  -0.3 °C 29.75 in /  1007.3 hPa NW 8.0 mph /  12.9 km/h 19.0 mph /  30.6 km/h 91 % 0.00 in /  0 mm
16:13 33.7 °F /  0.9 °C 30.5 °F /  -0.8 °C 29.75 in /  1007.3 hPa WNW 3.0 mph /  4.8 km/h 21.0 mph /  33.8 km/h 88 % 0.00 in /  0 mm
16:18 33.7 °F /  0.9 °C 30.2 °F /  -1 °C 29.76 in /  1007.7 hPa WNW 8.0 mph /  12.9 km/h 15.0 mph /  24.1 km/h 87 % 0.00 in /  0 mm
16:23 33.7 °F /  0.9 °C 30.5 °F /  -0.8 °C 29.76 in /  1007.7 hPa WNW 9.0 mph /  14.5 km/h 15.0 mph /  24.1 km/h 88 % 0.00 in /  0 mm
16:28 33.7 °F /  0.9 °C 30.5 °F /  -0.8 °C 29.76 in /  1007.7 hPa WNW 7.0 mph /  11.3 km/h 13.0 mph /  20.9 km/h 88 % 0.00 in /  0 mm
16:33 33.7 °F /  0.9 °C 30.5 °F /  -0.8 °C 29.76 in /  1007.7 hPa WNW 6.0 mph /  9.7 km/h 12.0 mph /  19.3 km/h 88 % 0.00 in /  0 mm
16:38 33.7 °F /  0.9 °C 30.2 °F /  -1 °C 29.76 in /  1007.7 hPa West 5.0 mph /  8 km/h 18.0 mph /  29 km/h 87 % 0.00 in /  0 mm
16:43 33.7 °F /  0.9 °C 30.0 °F /  -1.1 °C 29.76 in /  1007.7 hPa WNW 3.0 mph /  4.8 km/h 12.0 mph /  19.3 km/h 86 % 0.00 in /  0 mm
16:48 33.8 °F /  1 °C 30.1 °F /  -1.1 °C 29.76 in /  1007.7 hPa North 6.1 mph /  9.8 km/h 11.5 mph /  18.5 km/h 86 % 0.00 in /  0 mm
16:53 33.8 °F /  1 °C 30.1 °F /  -1.1 °C 29.77 in /  1008 hPa NW 6.4 mph /  10.3 km/h 9.2 mph /  14.8 km/h 86 % 0.00 in /  0 mm
16:58 33.8 °F /  1 °C 29.8 °F /  -1.2 °C 29.76 in /  1007.7 hPa NNW 5.2 mph /  8.4 km/h 11.5 mph /  18.5 km/h 85 % 0.00 in /  0 mm
17:03 33.9 °F /  1.1 °C 29.6 °F /  -1.3 °C 29.77 in /  1008 hPa NW 5.0 mph /  8 km/h 18.0 mph /  29 km/h 84 % 0.00 in /  0 mm
17:08 33.9 °F /  1.1 °C 29.3 °F /  -1.5 °C 29.77 in /  1008 hPa NW 5.0 mph /  8 km/h 17.0 mph /  27.4 km/h 83 % 0.00 in /  0 mm
17:13 34.0 °F /  1.1 °C 29.1 °F /  -1.6 °C 29.77 in /  1008 hPa WNW 8.0 mph /  12.9 km/h 15.0 mph /  24.1 km/h 82 % 0.00 in /  0 mm
17:18 34.0 °F /  1.1 °C 28.2 °F /  -2.1 °C 29.78 in /  1008.4 hPa NW 7.0 mph /  11.3 km/h 23.0 mph /  37 km/h 79 % 0.00 in /  0 mm
17:23 33.9 °F /  1.1 °C 27.8 °F /  -2.3 °C 29.78 in /  1008.4 hPa NNW 6.0 mph /  9.7 km/h 13.0 mph /  20.9 km/h 78 % 0.00 in /  0 mm
17:28 33.8 °F /  1 °C 27.4 °F /  -2.6 °C 29.78 in /  1008.4 hPa NNW 6.0 mph /  9.7 km/h 13.0 mph /  20.9 km/h 77 % 0.00 in /  0 mm
17:33 33.7 °F /  0.9 °C 27.3 °F /  -2.6 °C 29.78 in /  1008.4 hPa NNW 7.0 mph /  11.3 km/h 15.0 mph /  24.1 km/h 77 % 0.00 in /  0 mm
17:38 33.6 °F /  0.9 °C 26.5 °F /  -3.1 °C 29.78 in /  1008.4 hPa NNE 9.6 mph /  15.4 km/h 17.3 mph /  27.8 km/h 75 % 0.00 in /  0 mm
17:43 33.4 °F /  0.8 °C 26.3 °F /  -3.2 °C 29.79 in /  1008.7 hPa NNW 6.0 mph /  9.7 km/h 17.0 mph /  27.4 km/h 75 % 0.00 in /  0 mm
17:48 33.2 °F /  0.7 °C 25.5 °F /  -3.6 °C 29.79 in /  1008.7 hPa NNW 5.0 mph /  8 km/h 14.0 mph /  22.5 km/h 73 % 0.00 in /  0 mm
17:53 33.0 °F /  0.6 °C 25.3 °F /  -3.7 °C 29.79 in /  1008.7 hPa NW 7.0 mph /  11.3 km/h 18.0 mph /  29 km/h 73 % 0.00 in /  0 mm
17:58 32.9 °F /  0.5 °C 25.2 °F /  -3.8 °C 29.79 in /  1008.7 hPa NW 5.7 mph /  9.2 km/h 11.0 mph /  17.7 km/h 73 % 0.00 in /  0 mm
18:03 32.8 °F /  0.4 °C 24.1 °F /  -4.4 °C 29.79 in /  1008.7 hPa West 4.3 mph /  6.9 km/h 12.7 mph /  20.4 km/h 70 % 0.00 in /  0 mm
18:08 32.7 °F /  0.4 °C 24.3 °F /  -4.3 °C 29.80 in /  1009 hPa WNW 7.3 mph /  11.7 km/h 11.5 mph /  18.5 km/h 71 % 0.00 in /  0 mm
18:13 32.5 °F /  0.3 °C 23.8 °F /  -4.6 °C 29.80 in /  1009 hPa NW 9.4 mph /  15.1 km/h 12.7 mph /  20.4 km/h 70 % 0.00 in /  0 mm
18:18 32.4 °F /  0.2 °C 23.4 °F /  -4.8 °C 29.81 in /  1009.4 hPa WNW 6.6 mph /  10.6 km/h 12.7 mph /  20.4 km/h 69 % 0.00 in /  0 mm
18:23 32.3 °F /  0.2 °C 22.9 °F /  -5.1 °C 29.81 in /  1009.4 hPa NNW 7.7 mph /  12.4 km/h 15.0 mph /  24.1 km/h 68 % 0.00 in /  0 mm
18:28 32.1 °F /  0.1 °C 22.4 °F /  -5.3 °C 29.82 in /  1009.7 hPa WNW 8.8 mph /  14.2 km/h 16.1 mph /  25.9 km/h 67 % 0.00 in /  0 mm
18:33 31.9 °F /  -0.1 °C 22.9 °F /  -5.1 °C 29.82 in /  1009.7 hPa NW 7.2 mph /  11.6 km/h 14.0 mph /  22.5 km/h 69 % 0.00 in /  0 mm
18:38 31.9 °F /  -0.1 °C 23.2 °F /  -4.9 °C 29.82 in /  1009.7 hPa WNW 8.5 mph /  13.7 km/h 16.1 mph /  25.9 km/h 70 % 0.00 in /  0 mm
18:43 31.7 °F /  -0.2 °C 21.6 °F /  -5.8 °C 29.83 in /  1010 hPa WNW 5.4 mph /  8.7 km/h 12.7 mph /  20.4 km/h 66 % 0.00 in /  0 mm
18:48 31.6 °F /  -0.2 °C 21.2 °F /  -6 °C 29.83 in /  1010 hPa NW 8.8 mph /  14.2 km/h 20.7 mph /  33.3 km/h 65 % 0.00 in /  0 mm
18:53 31.5 °F /  -0.3 °C 21.1 °F /  -6.1 °C 29.83 in /  1010 hPa WNW 8.1 mph /  13 km/h 13.8 mph /  22.2 km/h 65 % 0.00 in /  0 mm
18:58 31.4 °F /  -0.3 °C 21.0 °F /  -6.1 °C 29.84 in /  1010.4 hPa NNW 6.9 mph /  11.1 km/h 11.5 mph /  18.5 km/h 65 % 0.00 in /  0 mm
19:03 31.2 °F /  -0.4 °C 20.8 °F /  -6.2 °C 29.84 in /  1010.4 hPa WNW 9.8 mph /  15.8 km/h 14.0 mph /  22.5 km/h 65 % 0.00 in /  0 mm
19:08 31.1 °F /  -0.5 °C 20.3 °F /  -6.5 °C 29.84 in /  1010.4 hPa NNW 5.6 mph /  9 km/h 11.5 mph /  18.5 km/h 64 % 0.00 in /  0 mm
19:13 30.9 °F /  -0.6 °C 20.1 °F /  -6.6 °C 29.84 in /  1010.4 hPa WNW 9.4 mph /  15.1 km/h 19.6 mph /  31.5 km/h 64 % 0.00 in /  0 mm
19:18 30.8 °F /  -0.7 °C 20.4 °F /  -6.4 °C 29.84 in /  1010.4 hPa NNE 5.9 mph /  9.5 km/h 11.5 mph /  18.5 km/h 65 % 0.00 in /  0 mm
19:23 30.7 °F /  -0.7 °C 20.0 °F /  -6.7 °C 29.84 in /  1010.4 hPa NW 6.6 mph /  10.6 km/h 11.5 mph /  18.5 km/h 64 % 0.00 in /  0 mm
19:28 30.6 °F /  -0.8 °C 20.2 °F /  -6.6 °C 29.85 in /  1010.7 hPa NNW 5.9 mph /  9.5 km/h 10.4 mph /  16.7 km/h 65 % 0.00 in /  0 mm
19:33 30.6 °F /  -0.8 °C 19.9 °F /  -6.7 °C 29.85 in /  1010.7 hPa SSW 4.8 mph /  7.7 km/h 11.5 mph /  18.5 km/h 64 % 0.00 in /  0 mm
19:38 30.5 °F /  -0.8 °C 19.8 °F /  -6.8 °C 29.85 in /  1010.7 hPa North 7.6 mph /  12.2 km/h 16.1 mph /  25.9 km/h 64 % 0.00 in /  0 mm
19:43 30.5 °F /  -0.8 °C 19.8 °F /  -6.8 °C 29.85 in /  1010.7 hPa NNW 5.0 mph /  8 km/h 9.2 mph /  14.8 km/h 64 % 0.00 in /  0 mm
19:48 30.4 °F /  -0.9 °C 20.4 °F /  -6.4 °C 29.85 in /  1010.7 hPa North 3.1 mph /  5 km/h 11.0 mph /  17.7 km/h 66 % 0.00 in /  0 mm
19:50 30.4 °F /  -0.9 °C 20.4 °F /  -6.4 °C 29.85 in /  1010.7 hPa NW 6.4 mph /  10.3 km/h 11.5 mph /  18.5 km/h 66 % 0.00 in /  0 mm
19:55 30.3 °F /  -0.9 °C 20.3 °F /  -6.5 °C 29.86 in /  1011.1 hPa NW 5.7 mph /  9.2 km/h 7.0 mph /  11.3 km/h 66 % 0.00 in /  0 mm
20:00 30.2 °F /  -1 °C 20.2 °F /  -6.6 °C 29.86 in /  1011.1 hPa NW 9.1 mph /  14.6 km/h 13.8 mph /  22.2 km/h 66 % 0.00 in /  0 mm
20:05 30.2 °F /  -1 °C 19.5 °F /  -6.9 °C 29.86 in /  1011.1 hPa NW 5.0 mph /  8 km/h 10.0 mph /  16.1 km/h 64 % 0.00 in /  0 mm
20:10 29.9 °F /  -1.2 °C 18.8 °F /  -7.3 °C 29.86 in /  1011.1 hPa NNW 9.3 mph /  15 km/h 12.7 mph /  20.4 km/h 63 % 0.00 in /  0 mm
20:15 29.8 °F /  -1.2 °C 19.5 °F /  -6.9 °C 29.87 in /  1011.4 hPa NW 10.5 mph /  16.9 km/h 16.1 mph /  25.9 km/h 65 % 0.00 in /  0 mm
20:20 29.6 °F /  -1.3 °C 18.9 °F /  -7.3 °C 29.87 in /  1011.4 hPa NW 8.0 mph /  12.9 km/h 17.0 mph /  27.4 km/h 64 % 0.00 in /  0 mm
20:25 29.5 °F /  -1.4 °C 19.2 °F /  -7.1 °C 29.87 in /  1011.4 hPa NNW 8.4 mph /  13.5 km/h 15.0 mph /  24.1 km/h 65 % 0.00 in /  0 mm
20:30 29.4 °F /  -1.4 °C 18.7 °F /  -7.4 °C 29.88 in /  1011.7 hPa NW 9.9 mph /  15.9 km/h 21.9 mph /  35.2 km/h 64 % 0.00 in /  0 mm
20:35 29.3 °F /  -1.5 °C 19.0 °F /  -7.2 °C 29.88 in /  1011.7 hPa North 4.7 mph /  7.6 km/h 10.4 mph /  16.7 km/h 65 % 0.00 in /  0 mm
20:40 29.1 °F /  -1.6 °C 18.8 °F /  -7.3 °C 29.88 in /  1011.7 hPa NW 8.8 mph /  14.2 km/h 17.3 mph /  27.8 km/h 65 % 0.00 in /  0 mm
20:45 29.0 °F /  -1.7 °C 18.7 °F /  -7.4 °C 29.88 in /  1011.7 hPa NNW 8.1 mph /  13 km/h 12.7 mph /  20.4 km/h 65 % 0.00 in /  0 mm
20:50 28.9 °F /  -1.7 °C 17.9 °F /  -7.8 °C 29.88 in /  1011.7 hPa NW 8.9 mph /  14.3 km/h 23.0 mph /  37 km/h 63 % 0.00 in /  0 mm
20:55 28.8 °F /  -1.8 °C 18.1 °F /  -7.7 °C 29.89 in /  1012.1 hPa WSW 9.8 mph /  15.8 km/h 11.5 mph /  18.5 km/h 64 % 0.00 in /  0 mm
21:00 28.8 °F /  -1.8 °C 18.5 °F /  -7.5 °C 29.89 in /  1012.1 hPa NNW 4.8 mph /  7.7 km/h 13.8 mph /  22.2 km/h 65 % 0.00 in /  0 mm
21:05 28.7 °F /  -1.8 °C 18.1 °F /  -7.7 °C 29.89 in /  1012.1 hPa WNW 6.7 mph /  10.8 km/h 19.6 mph /  31.5 km/h 64 % 0.00 in /  0 mm
21:10 28.7 °F /  -1.8 °C 18.1 °F /  -7.7 °C 29.90 in /  1012.4 hPa NNW 9.4 mph /  15.1 km/h 21.9 mph /  35.2 km/h 64 % 0.00 in /  0 mm
21:15 28.6 °F /  -1.9 °C 18.3 °F /  -7.6 °C 29.90 in /  1012.4 hPa NW 13.8 mph /  22.2 km/h 24.2 mph /  38.9 km/h 65 % 0.00 in /  0 mm
21:20 28.4 °F /  -2 °C 18.1 °F /  -7.7 °C 29.90 in /  1012.4 hPa NW 8.3 mph /  13.4 km/h 19.6 mph /  31.5 km/h 65 % 0.00 in /  0 mm
21:25 28.3 °F /  -2.1 °C 18.4 °F /  -7.6 °C 29.90 in /  1012.4 hPa WNW 9.7 mph /  15.6 km/h 15.0 mph /  24.1 km/h 66 % 0.00 in /  0 mm
21:30 28.1 °F /  -2.2 °C 17.8 °F /  -7.9 °C 29.92 in /  1013.1 hPa West 12.7 mph /  20.4 km/h 25.3 mph /  40.7 km/h 65 % 0.00 in /  0 mm
21:35 28.0 °F /  -2.2 °C 17.7 °F /  -7.9 °C 29.91 in /  1012.8 hPa NNW 9.9 mph /  15.9 km/h 19.6 mph /  31.5 km/h 65 % 0.00 in /  0 mm
21:40 27.8 °F /  -2.3 °C 17.2 °F /  -8.2 °C 29.92 in /  1013.1 hPa NNW 12.7 mph /  20.4 km/h 24.2 mph /  38.9 km/h 64 % 0.00 in /  0 mm
21:45 27.5 °F /  -2.5 °C 16.9 °F /  -8.4 °C 29.92 in /  1013.1 hPa NNW 6.5 mph /  10.5 km/h 16.1 mph /  25.9 km/h 64 % 0.00 in /  0 mm
21:50 27.4 °F /  -2.6 °C 16.8 °F /  -8.4 °C 29.92 in /  1013.1 hPa West 9.4 mph /  15.1 km/h 18.4 mph /  29.6 km/h 64 % 0.00 in /  0 mm
21:55 27.3 °F /  -2.6 °C 16.7 °F /  -8.5 °C 29.92 in /  1013.1 hPa North 7.1 mph /  11.4 km/h 13.8 mph /  22.2 km/h 64 % 0.00 in /  0 mm
22:00 27.1 °F /  -2.7 °C 16.2 °F /  -8.8 °C 29.93 in /  1013.4 hPa WNW 12.8 mph /  20.6 km/h 18.4 mph /  29.6 km/h 63 % 0.00 in /  0 mm
22:05 27.0 °F /  -2.8 °C 16.1 °F /  -8.8 °C 29.93 in /  1013.4 hPa NNW 10.3 mph /  16.6 km/h 19.6 mph /  31.5 km/h 63 % 0.00 in /  0 mm
22:10 26.9 °F /  -2.8 °C 16.3 °F /  -8.7 °C 29.94 in /  1013.8 hPa NNW 8.1 mph /  13 km/h 21.9 mph /  35.2 km/h 64 % 0.00 in /  0 mm
22:15 26.7 °F /  -2.9 °C 16.5 °F /  -8.6 °C 29.94 in /  1013.8 hPa NNW 6.3 mph /  10.1 km/h 15.0 mph /  24.1 km/h 65 % 0.00 in /  0 mm
22:20 26.6 °F /  -3 °C 15.7 °F /  -9.1 °C 29.94 in /  1013.8 hPa NW 10.2 mph /  16.4 km/h 20.7 mph /  33.3 km/h 63 % 0.00 in /  0 mm
22:25 26.4 °F /  -3.1 °C 15.1 °F /  -9.4 °C 29.94 in /  1013.8 hPa NW 12.5 mph /  20.1 km/h 18.0 mph /  29 km/h 62 % 0.00 in /  0 mm
22:30 26.2 °F /  -3.2 °C 15.3 °F /  -9.3 °C 29.95 in /  1014.1 hPa WNW 10.4 mph /  16.7 km/h 18.4 mph /  29.6 km/h 63 % 0.00 in /  0 mm
22:35 26.1 °F /  -3.3 °C 15.2 °F /  -9.3 °C 29.95 in /  1014.1 hPa NNW 12.2 mph /  19.6 km/h 23.0 mph /  37 km/h 63 % 0.00 in /  0 mm
22:40 25.9 °F /  -3.4 °C 15.0 °F /  -9.4 °C 29.95 in /  1014.1 hPa WNW 8.9 mph /  14.3 km/h 19.6 mph /  31.5 km/h 63 % 0.00 in /  0 mm
22:45 25.8 °F /  -3.4 °C 15.3 °F /  -9.3 °C 29.95 in /  1014.1 hPa North 8.5 mph /  13.7 km/h 23.0 mph /  37 km/h 64 % 0.00 in /  0 mm
22:50 25.6 °F /  -3.6 °C 14.7 °F /  -9.6 °C 29.95 in /  1014.1 hPa NW 10.9 mph /  17.5 km/h 23.0 mph /  37 km/h 63 % 0.00 in /  0 mm
22:55 25.4 °F /  -3.7 °C 13.8 °F /  -10.1 °C 29.95 in /  1014.1 hPa WNW 7.9 mph /  12.7 km/h 21.9 mph /  35.2 km/h 61 % 0.00 in /  0 mm
23:01 25.3 °F /  -3.7 °C 14.5 °F /  -9.7 °C 29.95 in /  1014.1 hPa NNW 7.5 mph /  12.1 km/h 17.3 mph /  27.8 km/h 63 % 0.00 in /  0 mm
23:06 25.1 °F /  -3.8 °C 13.9 °F /  -10.1 °C 29.96 in /  1014.4 hPa NW 11.6 mph /  18.7 km/h 23.0 mph /  37 km/h 62 % 0.00 in /  0 mm
23:11 24.9 °F /  -3.9 °C 13.3 °F /  -10.4 °C 29.96 in /  1014.4 hPa WNW 12.2 mph /  19.6 km/h 26.5 mph /  42.6 km/h 61 % 0.00 in /  0 mm
23:16 24.8 °F /  -4 °C 12.1 °F /  -11.1 °C 29.96 in /  1014.4 hPa WNW 12.4 mph /  20 km/h 25.3 mph /  40.7 km/h 58 % 0.00 in /  0 mm
23:21 24.5 °F /  -4.2 °C 11.8 °F /  -11.2 °C 29.96 in /  1014.4 hPa West 11.8 mph /  19 km/h 21.9 mph /  35.2 km/h 58 % 0.00 in /  0 mm
23:26 24.4 °F /  -4.2 °C 11.7 °F /  -11.3 °C 29.96 in /  1014.4 hPa NW 11.1 mph /  17.9 km/h 19.6 mph /  31.5 km/h 58 % 0.00 in /  0 mm
23:31 24.2 °F /  -4.3 °C 11.5 °F /  -11.4 °C 29.97 in /  1014.8 hPa WSW 10.7 mph /  17.2 km/h 23.0 mph /  37 km/h 58 % 0.00 in /  0 mm
23:36 24.1 °F /  -4.4 °C 11.8 °F /  -11.2 °C 29.97 in /  1014.8 hPa NNW 7.6 mph /  12.2 km/h 13.8 mph /  22.2 km/h 59 % 0.00 in /  0 mm
23:41 24.0 °F /  -4.4 °C 11.0 °F /  -11.7 °C 29.97 in /  1014.8 hPa WNW 8.2 mph /  13.2 km/h 19.0 mph /  30.6 km/h 57 % 0.00 in /  0 mm
23:46 23.9 °F /  -4.5 °C 10.9 °F /  -11.7 °C 29.97 in /  1014.8 hPa NW 10.7 mph /  17.2 km/h 24.0 mph /  38.6 km/h 57 % 0.00 in /  0 mm
23:51 23.8 °F /  -4.6 °C 11.2 °F /  -11.6 °C 29.97 in /  1014.8 hPa WNW 8.6 mph /  13.8 km/h 19.0 mph /  30.6 km/h 58 % 0.00 in /  0 mm
23:56 23.6 °F /  -4.7 °C 11.0 °F /  -11.7 °C 29.97 in /  1014.8 hPa WNW 9.0 mph /  14.5 km/h 15.0 mph /  24.1 km/h 58 % 0.00 in /  0 mm
Crab Meadow Weather
Compliments of Weather Underground - 3 mb

Script developed by  Jim McMurry - jmcmurry@mwt.net Adapted for the template by  Wim van der Kuil - Leuven-Template.eu

Weather Terms: Flood Stage - The level or stage at which a stream overflows its banks or the stage at which the overflow of a stream begins to cause damage.